createdAt,value
2022-12-14T00:00:54.708Z,29.20
2022-12-14T00:02:57.182Z,23.07
2022-12-14T00:04:59.521Z,24.40
2022-12-14T00:07:01.596Z,24.07
2022-12-14T00:09:05.053Z,21.73
2022-12-14T00:11:07.117Z,20.90
2022-12-14T00:13:12.657Z,20.77
2022-12-14T00:15:14.775Z,19.00
2022-12-14T00:17:16.753Z,25.40
2022-12-14T00:19:21.488Z,18.90
2022-12-14T00:21:23.832Z,19.60
2022-12-14T00:23:25.821Z,20.03
2022-12-14T00:25:29.296Z,21.27
2022-12-14T00:27:31.124Z,32.13
2022-12-14T00:29:33.107Z,28.07
2022-12-14T00:31:36.513Z,32.37
2022-12-14T00:33:39.054Z,25.40
2022-12-14T00:35:44.136Z,22.53
2022-12-14T00:37:48.921Z,23.10
2022-12-14T00:39:51.142Z,20.13
2022-12-14T00:41:53.598Z,19.60
2022-12-14T00:43:55.476Z,20.03
2022-12-14T00:45:57.684Z,20.37
2022-12-14T00:47:59.732Z,22.90
2022-12-14T00:50:01.839Z,19.20
2022-12-14T00:52:03.893Z,25.20
2022-12-14T00:54:05.999Z,23.33
2022-12-14T00:56:08.811Z,26.90
2022-12-14T00:58:12.813Z,20.80
2022-12-14T01:00:16.578Z,38.57
2022-12-14T01:02:18.909Z,33.20
2022-12-14T01:04:23.351Z,31.73
2022-12-14T01:06:25.568Z,35.33
2022-12-14T01:08:35.927Z,26.30
2022-12-14T01:10:41.140Z,25.10
2022-12-14T01:12:43.215Z,22.63
2022-12-14T01:14:46.435Z,28.47
2022-12-14T01:16:48.572Z,26.63
2022-12-14T01:18:50.698Z,20.63
2022-12-14T01:20:52.743Z,20.87
2022-12-14T01:22:59.055Z,21.27
2022-12-14T01:25:01.132Z,19.10
2022-12-14T01:27:03.470Z,17.40
2022-12-14T01:29:06.365Z,16.47
2022-12-14T01:31:17.928Z,20.83
2022-12-14T01:33:19.965Z,18.47
2022-12-14T01:35:22.009Z,20.50
2022-12-14T01:37:23.924Z,23.30
2022-12-14T01:39:25.917Z,24.07
2022-12-14T01:41:29.482Z,22.67
2022-12-14T01:43:51.837Z,24.57
2022-12-14T01:45:57.875Z,20.13
2022-12-14T01:48:02.998Z,19.77
2022-12-14T01:50:25.460Z,17.07
2022-12-14T01:52:40.109Z,16.97
2022-12-14T01:54:49.249Z,15.87
2022-12-14T01:56:52.550Z,14.47
2022-12-14T01:58:56.933Z,14.87
2022-12-14T02:01:02.592Z,16.20
2022-12-14T02:03:13.038Z,15.43
2022-12-14T02:05:18.465Z,14.20
2022-12-14T02:07:21.855Z,16.23
2022-12-14T02:09:30.525Z,16.90
2022-12-14T02:11:43.867Z,21.27
2022-12-14T02:13:48.904Z,17.47
2022-12-14T02:15:52.220Z,19.93
2022-12-14T02:17:54.566Z,20.60
2022-12-14T02:19:58.285Z,25.30
2022-12-14T02:22:12.652Z,26.83
2022-12-14T02:24:30.136Z,35.70
2022-12-14T02:26:55.147Z,32.80
2022-12-14T02:29:18.295Z,24.83
2022-12-14T02:32:11.129Z,24.57
2022-12-14T02:34:32.553Z,16.53
2022-12-14T02:36:43.730Z,19.07
2022-12-14T02:39:34.751Z,20.03
2022-12-14T02:42:09.126Z,21.77
2022-12-14T02:44:44.875Z,18.87
2022-12-14T02:47:16.225Z,19.23
2022-12-14T02:49:23.949Z,21.53
2022-12-14T02:51:57.622Z,21.77
2022-12-14T02:54:17.825Z,22.47
2022-12-14T02:56:25.641Z,18.33
2022-12-14T02:58:38.324Z,20.93
2022-12-14T03:00:41.206Z,17.43
2022-12-14T03:02:44.963Z,19.63
2022-12-14T03:04:51.168Z,23.10
2022-12-14T03:07:24.709Z,17.07
2022-12-14T03:09:31.417Z,22.73
2022-12-14T03:11:56.354Z,16.70
2022-12-14T03:14:24.111Z,18.03
2022-12-14T03:16:32.176Z,21.40
2022-12-14T03:18:43.029Z,17.73
2022-12-14T03:20:50.511Z,21.07
2022-12-14T03:23:15.916Z,15.90
2022-12-14T03:25:25.656Z,15.97
2022-12-14T03:27:35.168Z,16.73
2022-12-14T03:29:53.362Z,15.47
2022-12-14T03:32:26.759Z,21.07
2022-12-14T03:34:34.237Z,18.57
2022-12-14T03:36:44.145Z,21.37
2022-12-14T03:38:51.272Z,19.33
2022-12-14T03:40:57.803Z,22.80
2022-12-14T03:43:33.035Z,22.03
2022-12-14T03:46:01.375Z,16.77
2022-12-14T03:48:42.910Z,15.57
2022-12-14T03:51:01.555Z,12.67
2022-12-14T03:53:06.107Z,10.93
2022-12-14T03:55:09.028Z,13.33
2022-12-14T03:57:34.625Z,17.00
2022-12-14T04:00:01.817Z,24.27
2022-12-14T04:02:11.176Z,18.87
2022-12-14T04:04:18.886Z,13.33
2022-12-14T04:06:38.865Z,13.40
2022-12-14T04:08:49.986Z,10.90
2022-12-14T04:11:14.758Z,14.23
2022-12-14T04:13:40.503Z,12.70
2022-12-14T04:16:02.749Z,15.67
2022-12-14T04:18:28.126Z,16.23
2022-12-14T04:20:53.130Z,15.67
2022-12-14T04:23:04.021Z,14.53
2022-12-14T04:25:38.693Z,13.63
2022-12-14T04:28:00.224Z,13.70
2022-12-14T04:30:05.253Z,14.13
2022-12-14T04:32:18.447Z,9.97
2022-12-14T04:34:24.631Z,9.97
2022-12-14T04:36:34.369Z,10.43
2022-12-14T04:39:26.392Z,12.53
2022-12-14T04:41:34.129Z,14.07
2022-12-14T04:43:41.160Z,13.47
2022-12-14T04:45:58.646Z,11.03
2022-12-14T04:48:31.062Z,10.77
2022-12-14T04:50:39.906Z,11.87
2022-12-14T04:52:49.630Z,11.93
2022-12-14T04:54:56.810Z,11.53
2022-12-14T04:57:26.096Z,18.67
2022-12-14T04:59:29.121Z,25.67
2022-12-14T05:01:57.733Z,28.77
2022-12-14T05:04:31.819Z,38.13
2022-12-14T05:06:44.182Z,48.57
2022-12-14T05:08:55.701Z,41.90
2022-12-14T05:11:39.641Z,39.33
2022-12-14T05:13:49.123Z,73.03
2022-12-14T05:15:56.681Z,91.43
2022-12-14T05:18:03.946Z,77.00
2022-12-14T05:20:12.942Z,54.20
2022-12-14T05:22:15.073Z,72.47
2022-12-14T05:24:17.514Z,126.10
2022-12-14T05:26:19.448Z,142.17
2022-12-14T05:28:21.714Z,149.73
2022-12-14T05:30:23.780Z,147.80
2022-12-14T05:32:26.388Z,44.23
2022-12-14T05:34:28.447Z,36.27
2022-12-14T05:36:30.577Z,65.30
2022-12-14T05:38:32.673Z,28.20
2022-12-14T05:40:34.736Z,50.03
2022-12-14T05:42:41.088Z,44.80
2022-12-14T05:44:46.817Z,43.13
2022-12-14T05:46:48.846Z,75.80
2022-12-14T05:48:51.063Z,62.43
2022-12-14T05:50:53.216Z,58.27
2022-12-14T05:52:56.006Z,51.87
2022-12-14T05:55:02.441Z,37.47
2022-12-14T05:57:07.135Z,47.60
2022-12-14T05:59:09.455Z,31.33
2022-12-14T06:01:17.221Z,43.67
2022-12-14T06:03:21.773Z,54.00
2022-12-14T06:05:23.962Z,41.60
2022-12-14T06:07:28.110Z,30.50
2022-12-14T06:09:30.665Z,28.70
2022-12-14T06:11:33.503Z,40.50
2022-12-14T06:13:36.871Z,27.87
2022-12-14T06:15:38.737Z,31.90
2022-12-14T06:17:47.541Z,26.23
2022-12-14T06:19:50.600Z,23.87
2022-12-14T06:21:52.579Z,23.40
2022-12-14T06:23:55.664Z,51.23
2022-12-14T06:25:57.899Z,42.67
2022-12-14T06:27:59.962Z,51.43
2022-12-14T06:30:02.172Z,55.30
2022-12-14T06:32:04.390Z,47.43
2022-12-14T06:34:06.425Z,40.83
2022-12-14T06:36:26.924Z,35.30
2022-12-14T06:38:29.168Z,19.87
2022-12-14T06:40:31.633Z,25.30
2022-12-14T06:42:33.591Z,22.70
2022-12-14T06:44:35.833Z,17.17
2022-12-14T06:46:38.104Z,10.67
2022-12-14T06:48:40.350Z,8.23
2022-12-14T06:50:42.312Z,10.03
2022-12-14T06:52:44.388Z,14.47
2022-12-14T06:54:47.123Z,12.33
2022-12-14T06:56:49.488Z,12.40
2022-12-14T06:58:52.988Z,15.40
2022-12-14T07:00:55.079Z,24.93
2022-12-14T07:02:57.330Z,36.30
2022-12-14T07:04:59.764Z,50.13
2022-12-14T07:07:02.188Z,53.70
2022-12-14T07:09:05.879Z,47.30
2022-12-14T07:11:10.920Z,43.97
2022-12-14T07:13:13.099Z,46.83
2022-12-14T07:15:15.558Z,37.00
2022-12-14T07:17:17.566Z,32.10
2022-12-14T07:19:19.430Z,24.67
2022-12-14T07:21:22.819Z,23.53
2022-12-14T07:23:28.107Z,22.63
2022-12-14T07:25:30.539Z,32.13
2022-12-14T07:27:33.002Z,32.23
2022-12-14T07:29:35.218Z,34.93
2022-12-14T07:31:37.387Z,30.00
2022-12-14T07:33:39.839Z,29.07
2022-12-14T07:35:42.235Z,23.07
2022-12-14T07:37:49.349Z,21.37
2022-12-14T07:39:54.819Z,18.30
2022-12-14T07:41:56.835Z,24.03
2022-12-14T07:44:00.991Z,20.57
2022-12-14T07:46:05.610Z,18.50
2022-12-14T07:48:07.826Z,26.30
2022-12-14T07:50:10.731Z,21.97
2022-12-14T07:52:12.849Z,23.63
2022-12-14T07:54:14.983Z,18.50
2022-12-14T07:56:20.918Z,22.47
2022-12-14T07:58:23.030Z,18.60
2022-12-14T08:00:25.135Z,16.57
2022-12-14T08:02:27.452Z,12.20
2022-12-14T08:04:29.639Z,13.50
2022-12-14T08:06:32.174Z,12.37
2022-12-14T08:08:37.151Z,13.80
2022-12-14T08:10:40.644Z,14.07
2022-12-14T08:12:42.990Z,15.23
2022-12-14T08:14:45.168Z,14.60
2022-12-14T08:16:48.721Z,11.37
2022-12-14T08:18:53.369Z,17.73
2022-12-14T08:20:55.594Z,20.00
2022-12-14T08:22:57.797Z,20.43
2022-12-14T08:25:00.222Z,11.57
2022-12-14T08:27:02.710Z,23.07
2022-12-14T08:29:05.797Z,20.80
2022-12-14T08:31:11.537Z,21.90
2022-12-14T08:33:13.737Z,26.50
2022-12-14T08:35:15.957Z,23.83
2022-12-14T08:37:17.963Z,20.47
2022-12-14T08:39:20.225Z,26.43
2022-12-14T08:41:23.398Z,20.87
2022-12-14T08:43:28.982Z,22.40
2022-12-14T08:45:31.390Z,17.43
2022-12-14T08:47:33.529Z,21.80
2022-12-14T08:49:35.822Z,24.07
2022-12-14T08:51:38.850Z,19.20
2022-12-14T08:53:40.930Z,21.23
2022-12-14T08:55:43.663Z,33.27
2022-12-14T08:57:45.886Z,37.23
2022-12-14T09:00:03.782Z,38.97
2022-12-14T09:02:06.611Z,22.97
2022-12-14T09:04:09.042Z,13.97
2022-12-14T09:06:16.485Z,10.13
2022-12-14T09:08:18.622Z,10.93
2022-12-14T09:10:20.470Z,14.80
2022-12-14T09:12:23.486Z,10.57
2022-12-14T09:14:25.514Z,21.07
2022-12-14T09:16:27.889Z,19.73
2022-12-14T09:18:30.690Z,16.53
2022-12-14T09:20:33.544Z,15.30
2022-12-14T09:22:35.704Z,12.90
2022-12-14T09:24:38.019Z,17.77
2022-12-14T09:26:40.257Z,16.50
2022-12-14T09:28:46.186Z,17.50
2022-12-14T09:30:48.229Z,15.20
2022-12-14T09:32:50.712Z,12.37
2022-12-14T09:34:53.293Z,11.67
2022-12-14T09:36:55.425Z,10.87
2022-12-14T09:38:58.027Z,9.37
2022-12-14T09:41:07.637Z,13.00
2022-12-14T09:43:20.369Z,14.53
2022-12-14T09:45:29.094Z,26.40
2022-12-14T09:47:35.848Z,17.17
2022-12-14T09:50:06.836Z,18.67
2022-12-14T09:52:18.333Z,32.50
2022-12-14T09:54:26.457Z,31.10
2022-12-14T09:56:28.967Z,26.50
2022-12-14T09:58:33.266Z,28.33
2022-12-14T10:00:48.197Z,25.83
2022-12-14T10:03:40.626Z,24.47
2022-12-14T10:05:48.929Z,25.77
2022-12-14T10:07:59.580Z,26.57
2022-12-14T10:10:10.813Z,25.40
2022-12-14T10:12:34.614Z,20.53
2022-12-14T10:15:24.439Z,20.23
2022-12-14T10:18:01.450Z,17.13
2022-12-14T10:20:30.088Z,16.27
2022-12-14T10:22:37.930Z,18.10
2022-12-14T10:24:49.193Z,33.50
2022-12-14T10:26:53.578Z,42.37
2022-12-14T10:29:32.888Z,37.23
2022-12-14T10:31:41.139Z,32.83
2022-12-14T10:33:45.743Z,26.90
2022-12-14T10:35:55.308Z,19.90
2022-12-14T10:38:25.208Z,14.53
2022-12-14T10:40:34.242Z,13.87
2022-12-14T10:42:55.630Z,21.87
2022-12-14T10:45:39.023Z,36.50
2022-12-14T10:47:38.138Z,30.27
2022-12-14T10:49:53.420Z,22.17
2022-12-14T10:52:03.562Z,33.90
2022-12-14T10:54:23.703Z,35.03
2022-12-14T10:56:34.192Z,32.93
2022-12-14T10:58:36.274Z,42.47
2022-12-14T11:00:38.532Z,71.63
2022-12-14T11:02:44.374Z,59.27
2022-12-14T11:04:56.583Z,48.40
2022-12-14T11:07:04.832Z,36.50
2022-12-14T11:09:21.756Z,34.93
2022-12-14T11:11:26.114Z,38.03
2022-12-14T11:13:28.387Z,38.00
2022-12-14T11:15:38.015Z,39.27
2022-12-14T11:17:42.973Z,39.47
2022-12-14T11:20:02.821Z,36.13
2022-12-14T11:22:18.662Z,36.57
2022-12-14T11:24:27.404Z,38.90
2022-12-14T11:26:43.203Z,37.93
2022-12-14T11:28:56.423Z,24.13
2022-12-14T11:31:13.964Z,25.47
2022-12-14T11:33:17.952Z,25.23
2022-12-14T11:35:21.479Z,41.70
2022-12-14T11:37:27.104Z,39.03
2022-12-14T11:39:29.420Z,37.00
2022-12-14T11:41:59.151Z,35.10
2022-12-14T11:44:24.181Z,41.37
2022-12-14T11:46:47.468Z,49.80
2022-12-14T11:48:52.704Z,55.63
2022-12-14T11:51:08.941Z,70.73
2022-12-14T11:53:17.332Z,78.03
2022-12-14T11:55:27.130Z,70.30
2022-12-14T11:57:59.648Z,54.77
2022-12-14T12:00:06.060Z,46.60
2022-12-14T12:02:41.169Z,29.80
2022-12-14T12:04:56.240Z,13.60
2022-12-14T12:07:04.268Z,12.17
2022-12-14T12:09:21.888Z,25.40
2022-12-14T12:11:28.687Z,44.67
2022-12-14T12:13:42.293Z,51.00
2022-12-14T12:15:51.315Z,76.27
2022-12-14T12:17:58.178Z,70.07
2022-12-14T12:20:00.064Z,76.47
2022-12-14T12:22:04.214Z,58.20
2022-12-14T12:24:38.744Z,38.00
2022-12-14T12:27:12.442Z,41.03
2022-12-14T12:29:38.190Z,41.07
2022-12-14T12:31:57.237Z,38.83
2022-12-14T12:34:14.376Z,66.60
2022-12-14T12:36:23.939Z,66.27
2022-12-14T12:38:50.117Z,63.17
2022-12-14T12:41:16.905Z,70.13
2022-12-14T12:43:32.183Z,55.73
2022-12-14T12:45:44.626Z,31.10
2022-12-14T12:48:04.350Z,20.57
2022-12-14T12:50:30.636Z,20.33
2022-12-14T12:52:48.897Z,28.37
2022-12-14T12:55:00.513Z,28.73
2022-12-14T12:57:05.151Z,30.70
2022-12-14T12:59:07.933Z,27.30
2022-12-14T13:01:19.994Z,47.17
2022-12-14T13:03:53.501Z,46.13
2022-12-14T13:06:03.139Z,24.23
2022-12-14T13:08:13.689Z,26.93
2022-12-14T13:10:32.349Z,58.43
2022-12-14T13:12:42.209Z,79.00
2022-12-14T13:14:50.281Z,63.00
2022-12-14T13:16:54.468Z,73.90
2022-12-14T13:21:36.737Z,59.03
2022-12-14T13:23:46.330Z,64.37
2022-12-14T13:26:55.608Z,67.47
2022-12-14T13:28:57.375Z,88.30
2022-12-14T13:31:21.045Z,67.10
2022-12-14T13:33:42.166Z,60.27
2022-12-14T13:36:15.509Z,64.30
2022-12-14T13:38:42.236Z,62.63
2022-12-14T13:41:19.933Z,50.77
2022-12-14T13:43:49.778Z,72.43
2022-12-14T13:45:51.945Z,62.47
2022-12-14T13:47:57.244Z,44.90
2022-12-14T13:52:41.758Z,36.20
2022-12-14T13:54:47.726Z,31.23
2022-12-14T13:56:50.158Z,33.40
2022-12-14T13:58:52.949Z,50.20
2022-12-14T14:00:58.562Z,54.20
2022-12-14T14:03:00.710Z,60.37
2022-12-14T14:05:20.611Z,53.23
2022-12-14T14:07:25.532Z,46.67
2022-12-14T14:09:33.857Z,55.00
2022-12-14T14:11:37.537Z,58.70
2022-12-14T14:13:40.334Z,59.37
2022-12-14T14:16:26.425Z,59.63
2022-12-14T14:18:19.901Z,131.13
2022-12-14T14:20:35.256Z,105.07
2022-12-14T14:22:39.123Z,75.10
2022-12-14T14:25:02.522Z,44.20
2022-12-14T14:27:07.598Z,38.20
2022-12-14T14:29:21.432Z,39.37
2022-12-14T14:31:43.972Z,55.77
2022-12-14T14:33:49.694Z,42.03
2022-12-14T14:35:51.976Z,46.87
2022-12-14T14:37:59.405Z,41.87
2022-12-14T14:40:20.659Z,56.83
2022-12-14T14:42:29.698Z,79.67
2022-12-14T14:44:40.784Z,50.13
2022-12-14T14:46:48.612Z,45.43
2022-12-14T14:48:56.596Z,39.20
2022-12-14T14:51:05.978Z,48.00
2022-12-14T14:53:30.091Z,60.53
2022-12-14T14:58:01.225Z,119.83
2022-12-14T15:00:06.745Z,161.03
2022-12-14T15:02:41.906Z,174.90
2022-12-14T15:04:51.546Z,201.40
2022-12-14T15:07:07.691Z,136.80
2022-12-14T15:09:09.707Z,107.17
2022-12-14T15:11:17.101Z,54.13
2022-12-14T15:13:30.243Z,33.73
2022-12-14T15:15:46.059Z,38.90
2022-12-14T15:17:48.098Z,38.93
2022-12-14T15:20:03.257Z,65.87
2022-12-14T15:22:36.642Z,35.60
2022-12-14T15:24:42.452Z,29.40
2022-12-14T15:26:44.583Z,26.77
2022-12-14T15:28:49.380Z,31.03
2022-12-14T15:30:51.770Z,20.50
2022-12-14T15:32:59.286Z,22.70
2022-12-14T15:35:08.631Z,22.97
2022-12-14T15:37:37.130Z,17.23
2022-12-14T15:39:40.778Z,29.13
2022-12-14T15:41:43.180Z,30.20
2022-12-14T15:43:47.063Z,39.50
2022-12-14T15:45:55.671Z,34.60
2022-12-14T15:48:40.387Z,25.43
2022-12-14T15:50:46.665Z,21.00
2022-12-14T15:52:51.280Z,28.17
2022-12-14T15:54:53.596Z,35.07
2022-12-14T15:56:57.903Z,48.63
2022-12-14T15:59:31.751Z,49.13
2022-12-14T16:01:54.204Z,51.67
2022-12-14T16:04:07.821Z,37.93
2022-12-14T16:06:14.585Z,38.40
2022-12-14T16:08:17.827Z,33.23
2022-12-14T16:10:29.050Z,30.43
2022-12-14T16:12:44.732Z,31.13
2022-12-14T16:14:47.713Z,35.87
2022-12-14T16:16:50.945Z,44.73
2022-12-14T16:18:53.089Z,39.63
2022-12-14T16:21:00.550Z,53.20
2022-12-14T16:23:20.298Z,63.00
2022-12-14T16:25:22.391Z,52.83
2022-12-14T16:27:27.820Z,48.27
2022-12-14T16:29:32.488Z,41.97
2022-12-14T16:31:36.353Z,44.73
2022-12-14T16:33:40.993Z,33.73
2022-12-14T16:35:44.768Z,40.50
2022-12-14T16:37:51.385Z,31.17
2022-12-14T16:39:53.727Z,31.00
2022-12-14T16:42:00.832Z,32.50
2022-12-14T16:44:07.722Z,29.10
2022-12-14T16:46:15.493Z,32.33
2022-12-14T16:48:21.313Z,31.93
2022-12-14T16:50:56.632Z,30.90
2022-12-14T16:52:47.313Z,35.57
2022-12-14T16:55:14.418Z,35.63
2022-12-14T16:57:24.470Z,37.03
2022-12-14T16:59:38.302Z,36.13
2022-12-14T17:01:45.125Z,46.47
2022-12-14T17:04:00.138Z,56.20
2022-12-14T17:06:07.567Z,116.70
2022-12-14T17:08:11.747Z,86.83
2022-12-14T17:10:32.839Z,139.30
2022-12-14T17:12:35.035Z,186.40
2022-12-14T17:14:37.149Z,168.00
2022-12-14T17:16:39.790Z,129.00
2022-12-14T17:18:45.297Z,67.57
2022-12-14T17:20:47.538Z,100.20
2022-12-14T17:22:50.197Z,98.60
2022-12-14T17:24:52.536Z,81.27
2022-12-14T17:26:54.589Z,108.27
2022-12-14T17:28:57.582Z,94.53
2022-12-14T17:31:01.969Z,160.20
2022-12-14T17:33:04.194Z,133.57
2022-12-14T17:35:10.815Z,117.83
2022-12-14T17:37:24.609Z,118.57
2022-12-14T17:39:28.846Z,65.77
2022-12-14T17:41:31.206Z,106.40
2022-12-14T17:43:33.698Z,89.77
2022-12-14T17:45:36.091Z,85.87
2022-12-14T17:47:38.225Z,107.20
2022-12-14T17:49:42.439Z,82.00
2022-12-14T17:51:46.689Z,75.33
2022-12-14T17:53:49.371Z,107.43
2022-12-14T17:55:51.468Z,107.80
2022-12-14T17:57:54.616Z,129.57
2022-12-14T18:00:15.534Z,110.50
2022-12-14T18:02:26.646Z,122.33
2022-12-14T18:04:28.942Z,106.57
2022-12-14T18:06:33.926Z,86.87
2022-12-14T18:08:35.988Z,82.93
2022-12-14T18:10:39.093Z,61.73
2022-12-14T18:12:44.633Z,188.57
2022-12-14T18:14:47.133Z,279.53
2022-12-14T18:16:49.943Z,180.27
2022-12-14T18:18:54.321Z,140.67
2022-12-14T18:21:02.365Z,136.03
2022-12-14T18:23:04.442Z,92.40
2022-12-14T18:25:32.661Z,69.53
2022-12-14T18:27:34.645Z,90.53
2022-12-14T18:29:39.081Z,84.47
2022-12-14T18:31:41.326Z,54.97
2022-12-14T18:33:47.519Z,181.70
2022-12-14T18:35:50.784Z,223.30
2022-12-14T18:37:53.588Z,96.47
2022-12-14T18:39:55.682Z,52.20
2022-12-14T18:42:00.617Z,56.03
2022-12-14T18:44:02.891Z,61.90
2022-12-14T18:46:05.389Z,50.63
2022-12-14T18:48:07.770Z,65.30
2022-12-14T18:50:10.271Z,50.93
2022-12-14T18:52:13.122Z,45.93
2022-12-14T18:54:17.575Z,55.33
2022-12-14T18:56:22.191Z,57.73
2022-12-14T18:58:29.345Z,54.43
2022-12-14T19:00:36.491Z,59.63
2022-12-14T19:02:39.803Z,55.60
2022-12-14T19:04:42.298Z,65.30
2022-12-14T19:06:46.132Z,71.30
2022-12-14T19:08:49.521Z,70.77
2022-12-14T19:10:51.762Z,76.27
2022-12-14T19:12:54.299Z,78.47
2022-12-14T19:14:56.341Z,54.83
2022-12-14T19:16:58.820Z,74.33
2022-12-14T19:19:00.991Z,54.03
2022-12-14T19:21:04.026Z,53.30
2022-12-14T19:23:16.399Z,60.50
2022-12-14T19:25:19.832Z,56.87
2022-12-14T19:27:42.531Z,63.17
2022-12-14T19:29:44.290Z,55.33
2022-12-14T19:31:47.794Z,51.13
2022-12-14T19:33:54.337Z,45.20
2022-12-14T19:35:56.666Z,49.57
2022-12-14T19:37:58.792Z,55.13
2022-12-14T19:40:02.803Z,48.50
2022-12-14T19:42:04.992Z,54.90
2022-12-14T19:44:07.448Z,70.83
2022-12-14T19:46:11.504Z,71.47
2022-12-14T19:48:13.806Z,78.03
2022-12-14T19:50:16.550Z,65.47
2022-12-14T19:52:18.656Z,84.13
2022-12-14T19:54:20.787Z,119.83
2022-12-14T19:56:23.516Z,108.33
2022-12-14T19:58:25.609Z,144.47
2022-12-14T20:00:28.031Z,164.23
2022-12-14T20:02:30.261Z,191.33
2022-12-14T20:04:35.436Z,151.80
2022-12-14T20:06:37.827Z,112.93
2022-12-14T20:08:39.966Z,105.23
2022-12-14T20:10:42.277Z,80.87
2022-12-14T20:12:44.352Z,83.30
2022-12-14T20:14:49.360Z,76.07
2022-12-14T20:16:52.627Z,48.40
2022-12-14T20:18:54.781Z,54.57
2022-12-14T20:21:16.034Z,49.47
2022-12-14T20:23:22.406Z,38.13
2022-12-14T20:25:25.081Z,32.90
2022-12-14T20:27:27.283Z,25.20
2022-12-14T20:29:29.461Z,19.43
2022-12-14T20:31:34.963Z,19.80
2022-12-14T20:33:38.835Z,22.43
2022-12-14T20:35:43.548Z,25.37
2022-12-14T20:37:46.372Z,25.60
2022-12-14T20:39:48.873Z,29.43
2022-12-14T20:41:54.096Z,34.70
2022-12-14T20:43:56.307Z,36.83
2022-12-14T20:45:58.751Z,46.03
2022-12-14T20:48:00.902Z,61.27
2022-12-14T20:50:06.940Z,64.23
2022-12-14T20:52:09.266Z,48.23
2022-12-14T20:54:17.794Z,75.57
2022-12-14T20:56:19.789Z,63.43
2022-12-14T20:58:22.320Z,50.53
2022-12-14T21:00:24.698Z,59.93
2022-12-14T21:02:26.858Z,50.27
2022-12-14T21:04:29.092Z,49.90
2022-12-14T21:06:33.150Z,34.07
2022-12-14T21:08:54.208Z,25.70
2022-12-14T21:11:23.762Z,27.37
2022-12-14T21:13:25.768Z,30.87
2022-12-14T21:15:28.424Z,28.13
2022-12-14T21:17:31.381Z,30.53
2022-12-14T21:19:33.614Z,33.47
2022-12-14T21:21:35.447Z,34.87
2022-12-14T21:23:41.237Z,44.27
2022-12-14T21:25:44.198Z,43.27
2022-12-14T21:27:46.540Z,38.00
2022-12-14T21:29:49.472Z,37.83
2022-12-14T21:31:51.554Z,29.70
2022-12-14T21:33:58.537Z,26.50
2022-12-14T21:36:00.785Z,27.47
2022-12-14T21:38:03.137Z,28.20
2022-12-14T21:40:05.815Z,27.23
2022-12-14T21:42:10.577Z,33.50
2022-12-14T21:44:12.697Z,31.67
2022-12-14T21:46:18.771Z,116.23
2022-12-14T21:48:21.059Z,129.73
2022-12-14T21:50:23.208Z,113.03
2022-12-14T21:52:26.707Z,70.67
2022-12-14T21:54:29.029Z,66.70
2022-12-14T21:56:49.541Z,60.90
2022-12-14T21:58:53.125Z,47.60
2022-12-14T22:00:56.403Z,41.17
2022-12-14T22:02:58.972Z,52.57
2022-12-14T22:05:01.074Z,50.97
2022-12-14T22:07:03.339Z,51.50
2022-12-14T22:09:05.978Z,50.60
2022-12-14T22:11:08.418Z,55.80
2022-12-14T22:13:10.554Z,57.90
2022-12-14T22:15:12.817Z,95.63
2022-12-14T22:17:14.973Z,117.40
2022-12-14T22:19:22.372Z,110.27
2022-12-14T22:21:24.457Z,114.63
2022-12-14T22:23:26.712Z,139.03
2022-12-14T22:25:29.216Z,116.17
2022-12-14T22:27:31.650Z,110.70
2022-12-14T22:29:33.882Z,78.87
2022-12-14T22:31:37.429Z,91.07
2022-12-14T22:33:39.673Z,106.43
2022-12-14T22:35:41.734Z,88.17
2022-12-14T22:37:43.821Z,66.27
2022-12-14T22:39:48.780Z,85.37
2022-12-14T22:41:51.142Z,71.77
2022-12-14T22:43:57.877Z,60.43
2022-12-14T22:46:04.036Z,79.10
2022-12-14T22:48:06.314Z,100.37
2022-12-14T22:50:09.117Z,77.40
2022-12-14T22:52:11.398Z,71.93
2022-12-14T22:54:21.207Z,54.47
2022-12-14T22:56:34.727Z,53.80
2022-12-14T22:58:39.651Z,50.30
2022-12-14T23:00:41.956Z,52.07
2022-12-14T23:02:48.196Z,47.93
2022-12-14T23:04:51.204Z,59.37
2022-12-14T23:06:54.333Z,57.70
2022-12-14T23:09:15.204Z,72.13
2022-12-14T23:11:36.013Z,60.57
2022-12-14T23:13:56.803Z,52.33
2022-12-14T23:16:17.799Z,58.57
2022-12-14T23:18:39.039Z,54.63
2022-12-14T23:20:59.526Z,49.27
2022-12-14T23:23:24.381Z,49.70
2022-12-14T23:25:45.434Z,37.60
2022-12-14T23:28:05.967Z,43.10
2022-12-14T23:30:27.606Z,67.83
2022-12-14T23:32:48.276Z,58.97
2022-12-14T23:35:09.423Z,62.83
2022-12-14T23:37:30.108Z,76.57
2022-12-14T23:39:51.347Z,97.37
2022-12-14T23:42:12.596Z,55.00
2022-12-14T23:44:33.102Z,41.87
2022-12-14T23:46:53.809Z,46.20
2022-12-14T23:49:16.232Z,35.97
2022-12-14T23:51:37.054Z,40.13
2022-12-14T23:53:57.921Z,88.27
2022-12-14T23:56:19.318Z,72.60
2022-12-14T23:58:40.108Z,77.37
